Time;durP1;ratioP1;P1;durP2;ratioP2;P2;SDS_P1;SDS_P2;PMS_P1;PMS_P2;Temp;Humidity;BMP_temperature;BMP_pressure;BME280_temperature;BME280_humidity;BME280_pressure;Samples;Min_cycle;Max_cycle;Signal;HPM_P1;HPM_P2
2022/08/14 00:01:21;;;;;;;9.73;8.80;;;;;;;18.57;100.00;98906.44;5057543;28;20231;-80
2022/08/14 00:03:49;;;;;;;10.73;9.67;;;;;;;18.60;100.00;98900.44;5063766;28;20597;-81
2022/08/14 00:06:18;;;;;;;9.77;8.87;;;;;;;18.53;100.00;98902.63;5064474;28;20283;-78
2022/08/14 00:08:55;;;;;;;10.67;9.57;;;;;;;18.52;100.00;98893.72;5062277;28;20267;-80
2022/08/14 00:11:26;;;;;;;10.43;9.43;;;;;;;18.56;100.00;98900.22;5067100;28;20229;-79
2022/08/14 00:13:57;;;;;;;10.97;9.97;;;;;;;18.55;100.00;98900.50;5063975;28;20607;-79
2022/08/14 00:16:23;;;;;;;9.73;8.93;;;;;;;18.54;100.00;98904.28;5064007;28;20288;-79
2022/08/14 00:19:11;;;;;;;8.93;8.13;;;;;;;18.54;100.00;98901.59;5067292;28;20315;-81
2022/08/14 00:21:50;;;;;;;9.30;8.50;;;;;;;18.47;100.00;98899.22;5063510;28;20258;-81
2022/08/14 00:24:18;;;;;;;9.27;8.47;;;;;;;18.43;100.00;98895.44;5064527;28;20242;-80
2022/08/14 00:26:57;;;;;;;9.37;8.57;;;;;;;18.41;100.00;98898.44;5066722;28;20226;-80
2022/08/14 00:29:31;;;;;;;9.80;8.90;;;;;;;18.39;100.00;98889.78;5067468;28;20293;-81
2022/08/14 00:32:08;;;;;;;10.37;9.47;;;;;;;18.37;100.00;98891.19;5062919;28;20231;-81
2022/08/14 00:34:55;;;;;;;9.97;9.07;;;;;;;18.32;100.00;98889.31;5064498;28;20667;-80
2022/08/14 00:37:23;;;;;;;9.83;9.03;;;;;;;18.30;100.00;98879.84;5068065;28;20811;-81
2022/08/14 00:39:49;;;;;;;9.60;8.73;;;;;;;18.24;100.00;98878.31;5059575;28;20735;-81
2022/08/14 00:42:21;;;;;;;9.90;8.90;;;;;;;18.25;100.00;98888.84;5066415;28;20644;-80
2022/08/14 00:45:11;;;;;;;9.73;8.83;;;;;;;18.31;100.00;98890.41;5064389;28;20246;-81
2022/08/14 00:47:43;;;;;;;10.30;9.30;;;;;;;18.33;100.00;98887.44;5064877;28;20249;-83
2022/08/14 00:50:13;;;;;;;9.80;8.80;;;;;;;18.34;100.00;98880.88;5064504;28;20649;-82
2022/08/14 00:52:51;;;;;;;9.37;8.50;;;;;;;18.37;100.00;98889.28;5058584;28;20252;-80
2022/08/14 00:55:19;;;;;;;10.13;9.23;;;;;;;18.39;100.00;98892.50;5046962;28;20645;-80
2022/08/14 00:58:29;;;;;;;9.97;9.07;;;;;;;18.42;100.00;98894.66;5064709;28;20242;-80
2022/08/14 01:00:33;;;;;;;9.73;8.90;;;;;;;18.51;100.00;98896.72;5059198;28;20620;-81
2022/08/14 01:03:18;;;;;;;9.63;8.80;;;;;;;18.56;100.00;98893.97;5065484;28;20232;-80
2022/08/14 01:05:48;;;;;;;10.30;9.17;;;;;;;18.60;100.00;98892.31;5061188;28;20227;-80
2022/08/14 01:08:23;;;;;;;10.37;9.47;;;;;;;18.68;100.00;98897.06;5066269;28;20244;-79
2022/08/14 01:11:14;;;;;;;9.70;8.90;;;;;;;18.73;100.00;98897.03;5064126;28;20229;-81
2022/08/14 01:13:44;;;;;;;9.87;8.97;;;;;;;18.79;100.00;98893.97;5067436;28;20233;-80
2022/08/14 01:16:21;;;;;;;9.43;8.53;;;;;;;18.86;100.00;98894.41;5069820;28;20235;-80
2022/08/14 01:21:42;;;;;;;9.17;8.30;;;;;;;18.97;100.00;98884.22;5070180;28;20248;-79
2022/08/14 01:24:20;;;;;;;9.23;8.40;;;;;;;19.02;100.00;98892.31;5069455;28;20270;-79
2022/08/14 01:26:58;;;;;;;9.67;8.87;;;;;;;19.06;100.00;98887.91;5070242;28;20288;-79
2022/08/14 01:29:28;;;;;;;8.87;8.17;;;;;;;19.09;100.00;98883.78;5067938;28;20253;-80
2022/08/14 01:32:17;;;;;;;8.73;8.03;;;;;;;19.11;100.00;98876.16;5068903;28;20320;-79
2022/08/14 01:34:53;;;;;;;9.10;8.30;;;;;;;19.12;100.00;98873.16;5068302;28;20304;-79
2022/08/14 01:37:43;;;;;;;9.30;8.50;;;;;;;19.14;100.00;98881.00;5069710;28;20227;-80
2022/08/14 01:40:13;;;;;;;9.60;8.70;;;;;;;19.18;100.00;98873.88;5068077;28;20232;-81
2022/08/14 01:42:45;;;;;;;9.30;8.30;;;;;;;19.16;100.00;98879.63;5067182;28;20227;-82
2022/08/14 01:45:13;;;;;;;9.60;8.70;;;;;;;19.15;100.00;98869.84;5071321;28;20253;-81
2022/08/14 01:47:50;;;;;;;8.77;8.07;;;;;;;19.18;100.00;98876.59;5068970;28;20229;-80
2022/08/14 01:50:29;;;;;;;9.50;8.50;;;;;;;19.20;100.00;98877.13;5070695;28;20252;-81
2022/08/14 01:52:59;;;;;;;8.83;8.13;;;;;;;19.20;100.00;98869.78;5068498;28;20228;-79
2022/08/14 01:55:30;;;;;;;8.97;8.17;;;;;;;19.23;100.00;98874.59;5067096;28;20335;-80
2022/08/14 01:57:58;;;;;;;8.90;8.10;;;;;;;19.22;100.00;98864.84;5070121;28;20228;-81
2022/08/14 02:00:45;;;;;;;8.97;8.17;;;;;;;19.34;100.00;98862.50;5066667;28;20730;-80
2022/08/14 02:03:14;;;;;;;8.30;7.57;;;;;;;19.36;100.00;98860.28;5068457;28;20234;-79
2022/08/14 02:05:41;;;;;;;8.63;7.93;;;;;;;19.47;100.00;98863.69;5069856;28;20713;-80
2022/08/14 02:08:08;;;;;;;8.13;7.33;;;;;;;19.63;100.00;98875.13;5063802;28;20569;-80
2022/08/14 02:10:40;;;;;;;8.53;7.73;;;;;;;19.71;100.00;98875.25;5069832;28;20231;-81
2022/08/14 02:13:15;;;;;;;8.37;7.57;;;;;;;19.79;100.00;98863.69;5068546;28;20234;-80
2022/08/14 02:15:43;;;;;;;8.60;7.50;;;;;;;19.94;100.00;98876.22;5063847;28;20285;-80
2022/08/14 02:18:10;;;;;;;7.63;7.03;;;;;;;20.07;100.00;98871.91;5066918;28;20322;-79
2022/08/14 02:20:40;;;;;;;8.67;7.77;;;;;;;20.07;100.00;98867.28;5069859;28;20236;-80
2022/08/14 02:23:07;;;;;;;8.17;7.47;;;;;;;20.05;100.00;98865.97;5067102;28;20282;-80
2022/08/14 02:25:35;;;;;;;8.27;7.53;;;;;;;20.03;100.00;98866.25;5070421;28;20751;-79
2022/08/14 02:28:02;;;;;;;7.93;7.33;;;;;;;20.21;100.00;98868.09;5068998;28;20231;-78
2022/08/14 02:30:48;;;;;;;8.03;7.33;;;;;;;20.18;100.00;98855.13;5067005;28;20322;-79
2022/08/14 02:33:19;;;;;;;8.67;7.87;;;;;;;20.23;100.00;98863.19;5067778;28;20591;-79
2022/08/14 02:35:46;;;;;;;7.73;7.03;;;;;;;20.17;100.00;98863.56;5069366;28;20646;-80
2022/08/14 02:38:23;;;;;;;7.97;7.23;;;;;;;20.13;100.00;98852.50;5068684;28;20268;-79
2022/08/14 02:40:59;;;;;;;8.13;7.23;;;;;;;20.17;100.00;98858.94;5070832;28;20234;-80
2022/08/14 02:43:28;;;;;;;8.83;8.00;;;;;;;20.12;100.00;98872.63;5070769;28;20245;-80
2022/08/14 02:46:11;;;;;;;7.77;7.10;;;;;;;20.12;100.00;98869.91;5067429;28;20240;-79
2022/08/14 02:48:39;;;;;;;7.93;7.13;;;;;;;20.03;100.00;98873.63;5071027;28;20239;-80
2022/08/14 02:51:28;;;;;;;8.23;7.53;;;;;;;20.16;100.00;98873.63;5069983;28;20243;-79
2022/08/14 02:53:57;;;;;;;9.13;8.23;;;;;;;20.26;100.00;98869.09;5069191;28;20227;-79
2022/08/14 02:56:26;;;;;;;8.10;7.30;;;;;;;20.16;100.00;98875.53;5066344;28;21524;-78
2022/08/14 02:59:13;;;;;;;7.87;7.27;;;;;;;20.11;100.00;98881.88;5059125;28;20230;-80
2022/08/14 03:01:39;;;;;;;8.33;7.70;;;;;;;20.10;100.00;98874.84;5066365;28;20228;-80
2022/08/14 03:04:10;;;;;;;7.93;7.13;;;;;;;20.13;100.00;98870.72;5066828;28;20658;-80
2022/08/14 03:06:42;;;;;;;7.53;6.90;;;;;;;20.12;100.00;98878.06;5070873;28;20232;-79
2022/08/14 03:09:28;;;;;;;8.03;7.33;;;;;;;20.10;100.00;98874.03;5067193;28;20252;-80
2022/08/14 03:12:15;;;;;;;8.50;7.70;;;;;;;20.06;100.00;98875.75;5065005;28;20323;-79
2022/08/14 03:14:56;;;;;;;8.47;7.80;;;;;;;20.02;100.00;98870.09;5067685;28;20319;-81
2022/08/14 03:17:23;;;;;;;8.77;7.97;;;;;;;19.97;100.00;98872.88;5062158;28;20240;-80
2022/08/14 03:19:51;;;;;;;8.00;7.30;;;;;;;19.99;100.00;98876.13;5065613;28;20259;-80
2022/08/14 03:22:17;;;;;;;8.37;7.60;;;;;;;19.96;100.00;98876.75;5070593;28;20309;-81
2022/08/14 03:24:44;;;;;;;8.27;7.47;;;;;;;20.03;100.00;98873.63;5059744;28;20318;-81
2022/08/14 03:27:12;;;;;;;8.30;7.60;;;;;;;20.17;100.00;98877.16;5068896;28;20240;-81
2022/08/14 03:29:39;;;;;;;8.33;7.53;;;;;;;20.22;100.00;98877.88;5056558;28;20318;-81
2022/08/14 03:32:06;;;;;;;7.33;6.73;;;;;;;20.11;100.00;98872.94;5069258;28;20236;-80
2022/08/14 03:34:33;;;;;;;7.93;7.17;;;;;;;20.11;100.00;98878.38;5061783;28;20243;-81
2022/08/14 03:37:20;;;;;;;8.07;7.40;;;;;;;20.05;100.00;98872.22;5059420;28;20312;-80
2022/08/14 03:40:10;;;;;;;7.70;7.00;;;;;;;20.11;100.00;98875.66;5066826;28;20234;-79
2022/08/14 03:42:43;;;;;;;8.30;7.60;;;;;;;20.10;100.00;98871.31;5055744;28;20239;-80
2022/08/14 03:45:11;;;;;;;8.07;7.37;;;;;;;20.09;100.00;98877.88;5057128;28;20258;-83
2022/08/14 03:47:59;;;;;;;8.30;7.60;;;;;;;20.07;100.00;98877.34;5058954;28;20238;-81
2022/08/14 03:50:27;;;;;;;8.03;7.23;;;;;;;20.06;100.00;98879.25;5062447;28;20263;-80
2022/08/14 03:53:01;;;;;;;8.27;7.57;;;;;;;20.14;100.00;98875.88;5062348;28;20240;-80
2022/08/14 03:55:29;;;;;;;8.43;7.73;;;;;;;20.17;100.00;98874.44;5065023;28;20229;-81
2022/08/14 03:57:57;;;;;;;8.57;7.77;;;;;;;20.14;100.00;98866.91;5062236;28;20232;-81
2022/08/14 04:00:26;;;;;;;8.33;7.63;;;;;;;20.16;100.00;98873.63;5063022;28;20304;-80
2022/08/14 04:03:11;;;;;;;8.37;7.57;;;;;;;20.15;100.00;98869.31;5063595;28;20236;-80
2022/08/14 04:05:45;;;;;;;8.30;7.70;;;;;;;20.20;100.00;98874.63;5056476;28;20652;-81
2022/08/14 04:08:16;;;;;;;8.20;7.50;;;;;;;20.29;100.00;98871.25;5066144;28;20722;-82
2022/08/14 04:10:56;;;;;;;8.40;7.70;;;;;;;20.34;100.00;98869.28;5064867;28;20241;-83
2022/08/14 04:13:23;;;;;;;8.43;7.80;;;;;;;20.27;100.00;98876.16;5058125;28;20289;-80
2022/08/14 04:15:53;;;;;;;7.90;7.30;;;;;;;20.30;100.00;98870.13;5060999;28;20237;-81
2022/08/14 04:18:28;;;;;;;8.57;7.70;;;;;;;20.43;100.00;98866.66;5058528;28;20231;-81
2022/08/14 04:20:56;;;;;;;8.27;7.60;;;;;;;20.35;100.00;98864.59;5060470;28;20258;-82
2022/08/14 04:23:24;;;;;;;8.53;7.93;;;;;;;20.40;100.00;98857.16;5061888;28;20321;-81
2022/08/14 04:26:04;;;;;;;8.33;7.53;;;;;;;20.38;100.00;98845.78;5056146;28;20239;-81
2022/08/14 04:28:35;;;;;;;7.83;7.23;;;;;;;20.38;100.00;98851.22;5068204;28;20260;-81
2022/08/14 04:31:23;;;;;;;7.93;7.33;;;;;;;20.46;100.00;98842.34;5063788;28;20292;-81
2022/08/14 04:34:09;;;;;;;8.47;7.77;;;;;;;20.42;100.00;98848.72;5057870;28;20227;-81
2022/08/14 04:45:22;;;;;;;8.70;7.90;;;;;;;20.58;100.00;98856.25;5059905;28;20260;-81
2022/08/14 04:50:37;;;;;;;9.30;8.47;;;;;;;20.87;100.00;98860.56;5048786;28;20850;-81
2022/08/14 04:53:15;;;;;;;8.10;7.50;;;;;;;21.07;100.00;98855.47;5061219;28;20253;-81
2022/08/14 04:55:49;;;;;;;9.10;8.27;;;;;;;21.05;100.00;98841.34;5061599;28;20237;-80
2022/08/14 04:58:19;;;;;;;8.67;7.90;;;;;;;21.23;100.00;98841.53;5061612;28;20237;-82
2022/08/14 05:00:57;;;;;;;8.83;8.13;;;;;;;21.33;100.00;98841.28;5059569;28;20688;-84
2022/08/14 05:03:30;;;;;;;8.70;7.90;;;;;;;21.29;100.00;98837.56;5067098;28;20233;-82
2022/08/14 05:06:01;;;;;;;8.83;8.13;;;;;;;21.39;100.00;98842.78;5060160;28;20234;-81
2022/08/14 05:08:29;;;;;;;9.07;8.27;;;;;;;21.38;100.00;98839.25;5063194;28;20283;-81
2022/08/14 05:11:18;;;;;;;8.67;7.97;;;;;;;21.60;100.00;98843.09;5064300;28;20970;-80
2022/08/14 05:13:45;;;;;;;8.60;7.87;;;;;;;21.67;100.00;98838.81;5062858;28;20235;-82
2022/08/14 05:16:32;;;;;;;9.17;8.37;;;;;;;21.57;100.00;98830.06;5062827;28;20223;-81
2022/08/14 05:18:59;;;;;;;9.27;8.53;;;;;;;21.58;100.00;98826.25;5066519;28;20286;-80
2022/08/14 05:21:46;;;;;;;9.33;8.53;;;;;;;21.79;100.00;98833.59;5061101;28;20229;-80
2022/08/14 05:24:26;;;;;;;9.83;9.00;;;;;;;21.72;100.00;98824.25;5069315;28;20836;-82
2022/08/14 05:26:53;;;;;;;9.30;8.50;;;;;;;21.77;100.00;98835.84;5064689;28;20251;-81
2022/08/14 05:29:20;;;;;;;9.03;8.33;;;;;;;21.68;100.00;98832.25;5064033;28;20233;-82
2022/08/14 05:31:47;;;;;;;9.47;8.73;;;;;;;21.59;100.00;98819.69;5062441;28;20261;-81
2022/08/14 05:34:16;;;;;;;9.33;8.60;;;;;;;21.56;100.00;98823.03;5063236;28;20591;-82
2022/08/14 05:36:44;;;;;;;8.48;7.68;;;;;;;21.65;100.00;98826.63;5062930;28;20295;-81
2022/08/14 05:39:28;;;;;;;9.30;8.60;;;;;;;21.70;100.00;98821.81;5063690;28;20255;-80
2022/08/14 05:41:55;;;;;;;8.63;7.85;;;;;;;21.81;100.00;98820.47;5065488;28;20232;-80
2022/08/14 05:44:22;;;;;;;8.30;7.60;;;;;;;22.24;100.00;98828.06;5068053;28;20225;-81
2022/08/14 05:46:56;;;;;;;8.35;7.72;;;;;;;22.54;100.00;98829.13;5062469;28;20322;-81
2022/08/14 05:49:22;;;;;;;8.60;7.80;;;;;;;22.71;100.00;98835.47;5064885;28;20225;-80
2022/08/14 05:51:58;;;;;;;7.97;7.28;;;;;;;22.69;100.00;98831.41;5066551;28;20324;-80
2022/08/14 05:54:27;;;;;;;8.38;7.60;;;;;;;22.73;100.00;98835.94;5066529;28;20224;-81
2022/08/14 05:57:03;;;;;;;7.93;7.33;;;;;;;22.87;100.00;98832.28;5066345;28;20704;-81
2022/08/14 05:59:30;;;;;;;8.20;7.60;;;;;;;23.20;100.00;98830.69;5066743;28;20225;-79
2022/08/14 06:02:09;;;;;;;8.43;7.63;;;;;;;23.44;100.00;98825.56;5065485;28;20259;-82
2022/08/14 06:04:37;;;;;;;8.90;8.10;;;;;;;23.66;100.00;98813.63;5049506;28;20233;-81
2022/08/14 06:07:05;;;;;;;8.20;7.60;;;;;;;23.93;100.00;98820.66;5049917;28;20230;-82
2022/08/14 06:09:32;;;;;;;9.13;8.32;;;;;;;24.01;100.00;98819.81;5047422;28;20746;-82
2022/08/14 06:12:07;;;;;;;9.52;8.70;;;;;;;24.02;100.00;98827.72;5048416;28;20347;-82
2022/08/14 06:14:34;;;;;;;9.57;8.80;;;;;;;23.74;100.00;98831.16;5047571;28;20226;-83
2022/08/14 06:17:03;;;;;;;9.82;9.02;;;;;;;23.62;100.00;98832.63;5047966;28;20234;-82
2022/08/14 06:19:30;;;;;;;10.57;9.68;;;;;;;23.46;100.00;98825.25;5049628;28;20236;-81
2022/08/14 06:21:56;;;;;;;10.30;9.50;;;;;;;23.50;100.00;98829.75;5051620;28;20229;-81
2022/08/14 06:24:25;;;;;;;9.77;9.05;;;;;;;23.51;100.00;98831.38;5047319;28;20288;-80
2022/08/14 06:26:52;;;;;;;10.20;9.25;;;;;;;23.61;100.00;98832.94;5050021;28;20229;-82
2022/08/14 06:29:22;;;;;;;10.50;9.60;;;;;;;23.68;100.00;98828.59;5048746;28;20233;-82
2022/08/14 06:31:51;;;;;;;10.20;9.40;;;;;;;23.64;100.00;98827.66;5050669;28;20302;-80
2022/08/14 06:34:25;;;;;;;10.40;9.60;;;;;;;23.50;100.00;98835.22;5051349;28;20300;-83
2022/08/14 06:37:12;;;;;;;10.77;9.73;;;;;;;23.50;100.00;98827.03;5049382;28;20243;-80
2022/08/14 06:39:42;;;;;;;10.57;9.77;;;;;;;23.50;100.00;98821.56;5052870;28;20589;-82
2022/08/14 06:42:10;;;;;;;10.55;9.75;;;;;;;23.43;100.00;98823.13;5047461;28;20684;-81
2022/08/14 06:44:57;;;;;;;11.35;10.45;;;;;;;23.51;100.00;98823.16;5051054;28;20230;-82
2022/08/14 06:47:24;;;;;;;10.27;9.55;;;;;;;23.62;100.00;98829.09;5048195;28;20245;-82
2022/08/14 06:49:51;;;;;;;11.65;10.65;;;;;;;23.44;100.00;98819.28;5051938;28;20250;-82
2022/08/14 06:52:23;;;;;;;11.73;10.77;;;;;;;23.39;100.00;98825.72;5046437;28;20220;-82
2022/08/14 06:54:50;;;;;;;11.98;11.05;;;;;;;23.36;100.00;98828.28;5055358;28;20226;-82
2022/08/14 06:57:17;;;;;;;11.48;10.57;;;;;;;23.00;100.00;98834.09;5052847;28;20229;-81
2022/08/14 06:59:47;;;;;;;11.20;10.30;;;;;;;22.94;100.00;98819.78;5052758;28;20252;-81
2022/08/14 07:07:49;;;;;;;11.32;10.43;;;;;;;22.41;100.00;98828.13;5047395;28;20290;-82
2022/08/14 07:10:16;;;;;;;11.77;10.85;;;;;;;22.32;100.00;98830.84;5049952;28;20773;-81
2022/08/14 07:12:44;;;;;;;11.15;10.25;;;;;;;22.20;100.00;98832.56;5058993;28;20278;-80
2022/08/14 07:15:27;;;;;;;11.40;10.38;;;;;;;22.22;100.00;98839.28;5052783;28;20316;-81
2022/08/14 07:17:54;;;;;;;11.55;10.60;;;;;;;22.06;100.00;98837.31;5053930;28;20236;-80
2022/08/14 07:20:22;;;;;;;11.57;10.67;;;;;;;22.04;100.00;98843.06;5053870;28;20237;-81
2022/08/14 07:22:59;;;;;;;11.52;10.55;;;;;;;22.17;100.00;98833.97;5051094;28;20231;-79
2022/08/14 07:25:35;;;;;;;11.43;10.50;;;;;;;22.08;100.00;98832.31;5050342;28;20233;-79
2022/08/14 07:28:11;;;;;;;11.63;10.63;;;;;;;21.97;100.00;98839.19;5035965;28;20287;-79
2022/08/14 07:30:46;;;;;;;11.02;10.23;;;;;;;21.97;100.00;98828.28;5047611;28;20599;-81
2022/08/14 07:33:18;;;;;;;11.32;10.43;;;;;;;21.91;100.00;98827.56;5052764;28;20286;-80
2022/08/14 07:35:50;;;;;;;11.57;10.50;;;;;;;21.92;100.00;98834.63;5056235;28;20775;-80
2022/08/14 07:38:26;;;;;;;11.48;10.57;;;;;;;21.88;100.00;98839.88;5053141;28;20307;-82
2022/08/14 07:41:01;;;;;;;11.25;10.35;;;;;;;21.97;100.00;98833.72;5050639;28;20244;-80
2022/08/14 07:43:32;;;;;;;11.50;10.52;;;;;;;22.10;100.00;98839.09;5047654;28;20237;-80
2022/08/14 07:45:59;;;;;;;11.82;10.93;;;;;;;22.20;100.00;98838.00;5052910;28;20275;-80
2022/08/14 07:48:28;;;;;;;11.15;10.25;;;;;;;22.37;100.00;98841.59;5054141;28;20232;-80
2022/08/14 07:50:55;;;;;;;11.10;10.25;;;;;;;22.31;100.00;98826.47;5056402;28;20224;-80
2022/08/14 07:53:36;;;;;;;11.55;10.60;;;;;;;22.48;100.00;98833.13;5052041;28;20236;-80
2022/08/14 07:56:07;;;;;;;11.60;10.70;;;;;;;22.48;100.00;98835.88;5054890;28;20286;-81
2022/08/14 07:58:47;;;;;;;11.07;10.27;;;;;;;22.50;100.00;98839.88;5045813;28;20902;-81
2022/08/14 08:01:18;;;;;;;11.57;10.67;;;;;;;22.50;100.00;98837.16;5031060;28;20240;-80
2022/08/14 08:03:48;;;;;;;11.35;10.32;;;;;;;22.52;100.00;98832.19;5041163;28;20320;-82
2022/08/14 08:06:25;;;;;;;11.80;10.80;;;;;;;22.44;100.00;98832.97;5047444;28;20243;-80
2022/08/14 08:08:55;;;;;;;11.57;10.65;;;;;;;22.60;100.00;98841.50;5040087;28;20233;-81
2022/08/14 08:11:32;;;;;;;11.63;10.45;;;;;;;22.67;100.00;98828.22;5046342;28;20232;-81
2022/08/14 08:14:06;;;;;;;11.20;10.20;;;;;;;22.90;100.00;98829.72;5063191;28;20229;-80
2022/08/14 08:16:46;;;;;;;11.77;10.88;;;;;;;23.26;100.00;98821.22;5053898;28;20222;-82
2022/08/14 08:19:17;;;;;;;11.57;10.68;;;;;;;23.75;100.00;98833.56;5049160;28;20263;-81
2022/08/14 08:21:45;;;;;;;11.82;10.82;;;;;;;24.06;100.00;98816.91;5051797;28;20246;-81
2022/08/14 08:24:13;;;;;;;11.15;10.25;;;;;;;24.42;100.00;98820.00;5043517;28;20237;-82
2022/08/14 08:26:45;;;;;;;10.73;9.93;;;;;;;24.61;100.00;98816.03;5053014;28;20233;-83
2022/08/14 08:29:18;;;;;;;11.23;10.32;;;;;;;25.03;99.75;98820.44;5050115;28;20294;-83
2022/08/14 08:31:53;;;;;;;11.75;10.75;;;;;;;24.96;96.08;98822.94;5027584;28;20241;-83
2022/08/14 08:34:20;;;;;;;11.18;10.27;;;;;;;25.20;93.73;98819.50;5050745;28;20264;-82
2022/08/14 08:36:50;;;;;;;10.10;9.30;;;;;;;25.61;89.20;98829.66;5036709;28;20217;-82
2022/08/14 08:39:18;;;;;;;10.70;9.82;;;;;;;25.83;87.33;98826.53;5035528;28;20242;-82
2022/08/14 08:41:48;;;;;;;10.52;9.73;;;;;;;25.96;83.92;98827.34;5052629;28;20253;-82
2022/08/14 08:44:20;;;;;;;10.05;9.15;;;;;;;26.15;81.68;98830.34;5063035;28;20232;-82
2022/08/14 08:47:04;;;;;;;10.55;9.73;;;;;;;26.36;80.12;98825.63;5066787;28;20225;-82
2022/08/14 08:49:41;;;;;;;10.05;9.25;;;;;;;26.64;77.23;98821.00;5049742;28;20712;-83
2022/08/14 08:52:29;;;;;;;10.43;9.63;;;;;;;26.56;77.34;98823.88;5021666;28;20237;-82
2022/08/14 08:54:58;;;;;;;10.65;9.85;;;;;;;26.61;74.61;98824.44;5036698;28;20661;-82
2022/08/14 08:57:34;;;;;;;10.18;9.38;;;;;;;26.80;73.13;98817.56;5008006;28;20719;-82
2022/08/14 09:00:01;;;;;;;9.95;8.98;;;;;;;27.30;70.06;98817.91;5040985;28;20239;-81
2022/08/14 09:02:35;;;;;;;10.57;9.77;;;;;;;26.92;70.38;98823.09;5044893;28;20223;-82
2022/08/14 09:05:02;;;;;;;10.85;9.90;;;;;;;27.14;68.51;98822.56;5041115;28;20312;-82
2022/08/14 09:07:30;;;;;;;10.68;9.77;;;;;;;27.34;70.10;98823.53;5041277;28;20227;-82
2022/08/14 09:09:57;;;;;;;10.20;9.40;;;;;;;26.80;70.75;98825.81;5036469;28;22015;-81
2022/08/14 09:12:28;;;;;;;10.82;9.90;;;;;;;27.37;66.84;98818.13;5042372;28;20233;-81
2022/08/14 09:15:08;;;;;;;10.07;9.38;;;;;;;27.43;67.10;98833.25;5040205;28;20592;-82
2022/08/14 09:17:39;;;;;;;10.68;9.80;;;;;;;27.36;68.04;98826.72;5042405;28;20245;-82
2022/08/14 09:20:08;;;;;;;10.25;9.45;;;;;;;27.40;68.13;98824.88;5034777;28;20253;-82
2022/08/14 09:22:40;;;;;;;10.18;9.30;;;;;;;27.56;67.73;98834.03;5042335;28;20349;-82
2022/08/14 09:25:14;;;;;;;10.15;9.35;;;;;;;27.47;67.41;98838.84;5045047;28;20234;-82
2022/08/14 09:27:41;;;;;;;10.75;9.85;;;;;;;27.47;66.89;98836.91;5045859;28;20244;-82
2022/08/14 09:30:09;;;;;;;10.43;9.63;;;;;;;27.46;67.02;98837.25;5036243;28;20813;-82
2022/08/14 09:33:01;;;;;;;10.65;9.85;;;;;;;27.85;65.26;98824.59;5054891;28;20217;-81
2022/08/14 09:36:08;;;;;;;10.55;9.65;;;;;;;27.61;65.95;98830.22;5075647;28;20811;-83
2022/08/14 09:39:01;;;;;;;9.48;8.77;;;;;;;27.77;64.90;98820.03;5062234;28;20218;-82
2022/08/14 09:41:41;;;;;;;10.23;9.50;;;;;;;28.07;63.87;98818.47;5067357;28;20279;-81
2022/08/14 09:44:41;;;;;;;10.35;9.45;;;;;;;28.19;63.25;98821.16;5061568;28;20868;-82
2022/08/14 09:47:13;;;;;;;10.30;9.55;;;;;;;28.26;61.48;98818.59;5057742;28;20241;-82
2022/08/14 09:49:41;;;;;;;10.38;9.48;;;;;;;28.35;60.23;98810.16;5065500;28;20237;-83
2022/08/14 09:52:19;;;;;;;9.73;8.77;;;;;;;28.95;59.39;98811.59;5064888;28;20237;-83
2022/08/14 09:54:59;;;;;;;10.40;9.50;;;;;;;28.86;58.58;98805.47;5060493;28;20220;-82
2022/08/14 09:57:31;;;;;;;9.93;9.02;;;;;;;28.98;56.68;98799.81;5039031;28;20245;-83
2022/08/14 10:00:09;;;;;;;9.30;8.48;;;;;;;29.17;56.69;98797.09;5065480;28;20243;-82
2022/08/14 10:03:01;;;;;;;9.70;8.93;;;;;;;28.99;55.56;98795.09;5062139;28;20332;-82
2022/08/14 10:05:34;;;;;;;9.70;9.00;;;;;;;28.94;58.14;98793.44;5064336;28;20650;-82
2022/08/14 10:08:16;;;;;;;9.95;9.05;;;;;;;29.41;55.19;98782.22;5066368;28;20667;-82
2022/08/14 10:10:51;;;;;;;9.18;8.48;;;;;;;29.50;53.21;98776.47;5063327;28;20294;-82
2022/08/14 10:13:28;;;;;;;9.98;9.20;;;;;;;29.39;53.81;98778.25;5065074;28;20247;-82
2022/08/14 10:16:15;;;;;;;9.57;8.88;;;;;;;29.81;53.25;98770.78;5054110;28;20229;-82
2022/08/14 10:19:06;;;;;;;9.75;9.05;;;;;;;30.17;51.72;98773.00;5063573;28;20277;-82
2022/08/14 10:21:37;;;;;;;9.45;8.82;;;;;;;30.57;50.80;98775.22;5060424;28;20306;-83
2022/08/14 10:24:25;;;;;;;9.65;8.95;;;;;;;30.34;50.03;98763.38;5066955;28;20232;-82
2022/08/14 10:27:02;;;;;;;10.27;9.40;;;;;;;30.56;48.25;98764.56;5068437;28;20243;-82
2022/08/14 10:29:39;;;;;;;9.70;9.00;;;;;;;30.76;48.69;98760.47;5064552;28;20236;-82
2022/08/14 10:32:09;;;;;;;9.43;8.73;;;;;;;31.06;48.74;98759.72;5068166;28;20243;-82
2022/08/14 10:35:04;;;;;;;9.38;8.57;;;;;;;31.07;47.42;98764.88;5068167;28;20278;-83
2022/08/14 10:37:37;;;;;;;9.38;8.65;;;;;;;30.96;46.94;98748.13;5064033;28;20294;-82
2022/08/14 10:40:06;;;;;;;9.50;8.70;;;;;;;30.83;47.32;98754.25;5064294;28;20228;-83
2022/08/14 10:42:53;;;;;;;9.50;8.80;;;;;;;30.69;47.44;98749.34;5065770;28;20229;-82
2022/08/14 10:45:30;;;;;;;9.48;8.77;;;;;;;31.06;47.21;98743.91;5068846;28;20609;-82
2022/08/14 10:48:16;;;;;;;9.23;8.45;;;;;;;30.86;47.17;98743.22;5063973;28;20231;-82
2022/08/14 10:51:02;;;;;;;9.23;8.57;;;;;;;30.57;47.29;98746.78;5063885;28;20235;-82
2022/08/14 10:53:36;;;;;;;8.90;8.20;;;;;;;30.70;47.17;98747.38;5069163;28;20609;-83
2022/08/14 10:56:08;;;;;;;9.32;8.55;;;;;;;31.40;45.49;98741.94;5053687;28;20323;-83
2022/08/14 10:59:05;;;;;;;9.20;8.50;;;;;;;31.08;46.56;98744.31;5068743;28;20232;-82
2022/08/14 11:01:35;;;;;;;9.20;8.50;;;;;;;31.23;46.94;98750.81;5065044;28;20236;-83
2022/08/14 11:04:19;;;;;;;9.57;8.88;;;;;;;30.95;46.43;98746.50;5065286;28;20252;-82
2022/08/14 11:06:52;;;;;;;9.88;9.00;;;;;;;31.05;45.50;98739.56;5062736;28;20236;-83
2022/08/14 11:09:19;;;;;;;9.80;8.90;;;;;;;30.69;46.82;98738.28;5064204;28;20232;-83
2022/08/14 11:11:55;;;;;;;9.23;8.48;;;;;;;30.70;45.88;98733.53;5064609;28;20239;-82
2022/08/14 11:14:49;;;;;;;9.07;8.38;;;;;;;30.55;44.75;98736.09;5070432;28;20312;-83
2022/08/14 11:17:30;;;;;;;8.80;8.07;;;;;;;30.81;44.78;98724.19;5060365;28;20241;-82
2022/08/14 11:19:59;;;;;;;9.25;8.55;;;;;;;31.12;44.45;98731.34;5053539;28;20230;-82
2022/08/14 11:22:29;;;;;;;8.82;8.13;;;;;;;31.19;44.36;98725.09;5051836;28;20309;-82
2022/08/14 11:25:17;;;;;;;8.98;8.23;;;;;;;31.28;43.71;98720.84;5051644;28;20229;-82
2022/08/14 11:27:45;;;;;;;9.10;8.40;;;;;;;31.61;43.34;98716.47;5055679;28;20231;-82
2022/08/14 11:30:21;;;;;;;9.18;8.48;;;;;;;30.80;44.31;98719.03;5051341;28;20294;-83
2022/08/14 11:33:08;;;;;;;8.85;8.15;;;;;;;30.54;44.60;98719.88;5052687;28;20264;-82
2022/08/14 11:35:37;;;;;;;9.57;8.77;;;;;;;30.16;46.56;98721.66;5053623;28;20244;-81
2022/08/14 11:38:14;;;;;;;8.70;8.00;;;;;;;29.69;49.25;98722.03;5058574;28;20229;-82
2022/08/14 11:40:44;;;;;;;8.73;8.02;;;;;;;29.30;49.93;98723.31;5059083;28;20642;-82
2022/08/14 11:43:13;;;;;;;9.13;8.32;;;;;;;28.94;50.73;98718.19;5056852;28;20237;-82
2022/08/14 11:45:47;;;;;;;9.32;8.43;;;;;;;28.77;51.89;98717.47;5032337;28;20244;-82
2022/08/14 11:48:18;;;;;;;9.18;8.48;;;;;;;28.96;52.50;98719.44;5039013;28;20315;-82
2022/08/14 11:51:16;;;;;;;9.38;8.68;;;;;;;28.99;52.02;98717.91;5049436;28;20230;-82
2022/08/14 11:53:50;;;;;;;9.40;8.57;;;;;;;29.05;50.72;98720.03;5050011;28;20712;-82
2022/08/14 11:56:17;;;;;;;9.25;8.32;;;;;;;29.44;48.20;98715.28;5052308;28;20256;-82
2022/08/14 11:58:52;;;;;;;9.30;8.57;;;;;;;29.98;47.44;98714.28;5053574;28;20232;-82
2022/08/14 12:01:28;;;;;;;9.10;8.20;;;;;;;30.27;45.94;98721.84;5053822;28;20727;-82
2022/08/14 12:04:08;;;;;;;9.27;8.27;;;;;;;30.10;46.14;98720.38;5061900;28;20250;-82
2022/08/14 12:06:55;;;;;;;8.80;8.00;;;;;;;29.66;46.36;98711.75;5048540;28;20219;-82
2022/08/14 12:09:32;;;;;;;8.85;8.15;;;;;;;29.61;46.08;98717.56;5047791;28;20332;-82
2022/08/14 12:12:00;;;;;;;8.50;7.85;;;;;;;29.32;47.22;98707.16;5045765;28;20283;-82
2022/08/14 12:14:27;;;;;;;8.80;8.00;;;;;;;29.24;48.35;98708.19;5030529;28;20300;-82
2022/08/14 12:17:05;;;;;;;8.90;8.13;;;;;;;29.28;48.45;98700.75;5045883;28;20230;-83